sensor_id;sensor_type;location;lat;lon;timestamp;pressure;altitude;pressure_sealevel;temperature;humidity
72038;BME280;59900;50.788;12.904;2023-04-24T00:00:14;96356.00;;;13.00;nan
72038;BME280;59900;50.788;12.904;2023-04-24T00:02:40;96349.13;;;12.99;75.70
72038;BME280;59900;50.788;12.904;2023-04-24T00:05:06;96347.75;;;12.97;76.25
72038;BME280;59900;50.788;12.904;2023-04-24T00:07:32;96341.91;;;12.94;76.60
72038;BME280;59900;50.788;12.904;2023-04-24T00:09:57;96350.06;;;12.93;76.89
72038;BME280;59900;50.788;12.904;2023-04-24T00:12:23;96349.41;;;12.86;77.70
72038;BME280;59900;50.788;12.904;2023-04-24T00:14:48;96343.03;;;12.82;78.51
72038;BME280;59900;50.788;12.904;2023-04-24T00:17:14;96347.19;;;12.78;79.03
72038;BME280;59900;50.788;12.904;2023-04-24T00:19:39;96335.63;;;12.79;79.28
72038;BME280;59900;50.788;12.904;2023-04-24T00:22:05;96335.75;;;12.72;80.27
72038;BME280;59900;50.788;12.904;2023-04-24T00:24:30;96344.94;;;12.70;80.12
72038;BME280;59900;50.788;12.904;2023-04-24T00:26:55;96339.59;;;12.65;80.28
72038;BME280;59900;50.788;12.904;2023-04-24T00:29:21;96338.22;;;12.62;80.91
72038;BME280;59900;50.788;12.904;2023-04-24T00:31:46;96340.84;;;12.62;80.80
72038;BME280;59900;50.788;12.904;2023-04-24T00:34:11;96334.00;;;12.61;80.80
72038;BME280;59900;50.788;12.904;2023-04-24T00:36:37;96345.91;;;12.64;80.94
72038;BME280;59900;50.788;12.904;2023-04-24T00:39:03;96332.25;;;12.67;80.56
72038;BME280;59900;50.788;12.904;2023-04-24T00:41:28;96332.16;;;12.62;80.88
72038;BME280;59900;50.788;12.904;2023-04-24T00:43:54;96329.66;;;12.55;81.07
72038;BME280;59900;50.788;12.904;2023-04-24T00:46:20;96330.16;;;12.52;81.17
72038;BME280;59900;50.788;12.904;2023-04-24T00:48:46;96321.44;;;12.52;81.47
72038;BME280;59900;50.788;12.904;2023-04-24T00:51:11;96329.81;;;12.49;81.75
72038;BME280;59900;50.788;12.904;2023-04-24T00:53:36;96335.56;;;12.46;81.92
72038;BME280;59900;50.788;12.904;2023-04-24T00:56:02;96318.63;;;12.42;82.13
72038;BME280;59900;50.788;12.904;2023-04-24T00:58:27;96327.25;;;12.37;82.70
72038;BME280;59900;50.788;12.904;2023-04-24T01:00:54;96320.59;;;12.34;82.54
72038;BME280;59900;50.788;12.904;2023-04-24T01:03:24;96326.91;;;12.33;82.53
72038;BME280;59900;50.788;12.904;2023-04-24T01:05:51;96326.56;;;12.30;82.51
72038;BME280;59900;50.788;12.904;2023-04-24T01:08:16;96329.44;;;12.28;82.62
72038;BME280;59900;50.788;12.904;2023-04-24T01:10:44;96330.94;;;12.24;82.36
72038;BME280;59900;50.788;12.904;2023-04-24T01:13:10;96330.94;;;12.24;82.31
72038;BME280;59900;50.788;12.904;2023-04-24T01:15:35;96331.41;;;12.21;82.27
72038;BME280;59900;50.788;12.904;2023-04-24T01:18:00;96334.06;;;12.21;82.33
72038;BME280;59900;50.788;12.904;2023-04-24T01:20:26;96332.94;;;12.17;82.40
72038;BME280;59900;50.788;12.904;2023-04-24T01:22:52;96326.63;;;12.18;82.09
72038;BME280;59900;50.788;12.904;2023-04-24T01:25:18;96325.84;;;12.18;82.06
72038;BME280;59900;50.788;12.904;2023-04-24T01:27:43;96316.56;;;12.15;81.99
72038;BME280;59900;50.788;12.904;2023-04-24T01:30:09;96310.25;;;12.16;82.17
72038;BME280;59900;50.788;12.904;2023-04-24T01:32:35;96314.97;;;12.14;81.77
72038;BME280;59900;50.788;12.904;2023-04-24T01:35:01;96324.38;;;12.10;81.40
72038;BME280;59900;50.788;12.904;2023-04-24T01:37:27;96314.88;;;12.09;81.51
72038;BME280;59900;50.788;12.904;2023-04-24T01:39:52;96316.47;;;12.10;81.67
72038;BME280;59900;50.788;12.904;2023-04-24T01:42:17;96318.75;;;12.07;81.38
72038;BME280;59900;50.788;12.904;2023-04-24T01:44:43;96317.75;;;12.08;81.27
72038;BME280;59900;50.788;12.904;2023-04-24T01:47:08;96322.19;;;12.07;80.83
72038;BME280;59900;50.788;12.904;2023-04-24T01:49:34;96330.09;;;12.07;80.59
72038;BME280;59900;50.788;12.904;2023-04-24T01:51:59;96339.06;;;12.06;80.46
72038;BME280;59900;50.788;12.904;2023-04-24T01:54:24;96335.03;;;12.04;80.56
72038;BME280;59900;50.788;12.904;2023-04-24T01:56:50;96341.34;;;12.03;81.15
72038;BME280;59900;50.788;12.904;2023-04-24T01:59:16;96333.91;;;12.00;80.27
72038;BME280;59900;50.788;12.904;2023-04-24T02:01:42;96336.88;;;12.03;80.33
72038;BME280;59900;50.788;12.904;2023-04-24T02:04:08;96324.75;;;12.02;80.11
72038;BME280;59900;50.788;12.904;2023-04-24T02:06:33;96329.75;;;12.04;80.21
72038;BME280;59900;50.788;12.904;2023-04-24T02:08:59;96335.75;;;11.99;80.06
72038;BME280;59900;50.788;12.904;2023-04-24T02:11:25;96352.09;;;12.01;80.21
72038;BME280;59900;50.788;12.904;2023-04-24T02:13:51;96342.84;;;11.99;79.98
72038;BME280;59900;50.788;12.904;2023-04-24T02:16:16;96344.91;;;11.97;80.25
72038;BME280;59900;50.788;12.904;2023-04-24T02:18:42;96338.75;;;11.91;80.36
72038;BME280;59900;50.788;12.904;2023-04-24T02:21:07;96343.75;;;11.93;80.60
72038;BME280;59900;50.788;12.904;2023-04-24T02:23:32;96325.72;;;11.85;80.86
72038;BME280;59900;50.788;12.904;2023-04-24T02:25:57;96338.16;;;11.89;80.89
72038;BME280;59900;50.788;12.904;2023-04-24T02:28:23;96332.34;;;11.87;81.00
72038;BME280;59900;50.788;12.904;2023-04-24T02:30:48;96338.53;;;11.81;80.82
72038;BME280;59900;50.788;12.904;2023-04-24T02:33:13;96336.91;;;11.80;80.80
72038;BME280;59900;50.788;12.904;2023-04-24T02:35:38;96321.38;;;11.78;81.02
72038;BME280;59900;50.788;12.904;2023-04-24T02:38:04;96320.81;;;11.76;81.14
72038;BME280;59900;50.788;12.904;2023-04-24T02:40:29;96330.66;;;11.69;81.21
72038;BME280;59900;50.788;12.904;2023-04-24T02:42:54;96333.97;;;11.65;81.43
72038;BME280;59900;50.788;12.904;2023-04-24T02:45:20;96327.09;;;11.64;81.32
72038;BME280;59900;50.788;12.904;2023-04-24T02:47:45;96326.53;;;11.62;81.41
72038;BME280;59900;50.788;12.904;2023-04-24T02:50:10;96336.25;;;11.61;81.54
72038;BME280;59900;50.788;12.904;2023-04-24T02:52:36;96333.84;;;11.60;81.77
72038;BME280;59900;50.788;12.904;2023-04-24T02:55:01;96331.47;;;11.58;81.44
72038;BME280;59900;50.788;12.904;2023-04-24T02:57:27;96329.03;;;11.57;81.82
72038;BME280;59900;50.788;12.904;2023-04-24T02:59:52;96311.34;;;11.52;81.39
72038;BME280;59900;50.788;12.904;2023-04-24T03:02:17;96322.31;;;11.49;81.71
72038;BME280;59900;50.788;12.904;2023-04-24T03:04:42;96322.78;;;11.46;81.68
72038;BME280;59900;50.788;12.904;2023-04-24T03:07:08;96324.25;;;11.42;81.81
72038;BME280;59900;50.788;12.904;2023-04-24T03:09:33;96326.56;;;11.39;81.92
72038;BME280;59900;50.788;12.904;2023-04-24T03:11:58;96325.16;;;11.36;81.89
72038;BME280;59900;50.788;12.904;2023-04-24T03:14:24;96334.47;;;11.39;82.10
72038;BME280;59900;50.788;12.904;2023-04-24T03:16:49;96332.28;;;11.36;81.83
72038;BME280;59900;50.788;12.904;2023-04-24T03:19:15;96326.22;;;11.35;81.92
72038;BME280;59900;50.788;12.904;2023-04-24T03:21:40;96330.22;;;11.38;81.31
72038;BME280;59900;50.788;12.904;2023-04-24T03:24:07;96330.44;;;11.36;81.59
72038;BME280;59900;50.788;12.904;2023-04-24T03:26:33;96333.31;;;11.35;81.55
72038;BME280;59900;50.788;12.904;2023-04-24T03:28:58;96324.25;;;11.31;81.77
72038;BME280;59900;50.788;12.904;2023-04-24T03:31:23;96322.09;;;11.27;81.71
72038;BME280;59900;50.788;12.904;2023-04-24T03:33:49;96319.81;;;11.31;81.64
72038;BME280;59900;50.788;12.904;2023-04-24T03:36:14;96322.44;;;11.31;81.52
72038;BME280;59900;50.788;12.904;2023-04-24T03:38:40;96337.09;;;11.27;81.63
72038;BME280;59900;50.788;12.904;2023-04-24T03:41:05;96334.47;;;11.27;81.49
72038;BME280;59900;50.788;12.904;2023-04-24T03:43:30;96339.47;;;11.29;81.45
72038;BME280;59900;50.788;12.904;2023-04-24T03:45:58;96337.88;;;11.27;81.37
72038;BME280;59900;50.788;12.904;2023-04-24T03:48:23;96340.28;;;11.29;81.43
72038;BME280;59900;50.788;12.904;2023-04-24T03:50:48;96341.75;;;11.25;81.28
72038;BME280;59900;50.788;12.904;2023-04-24T03:53:14;96338.78;;;11.21;81.39
72038;BME280;59900;50.788;12.904;2023-04-24T03:55:39;96336.84;;;11.17;81.59
72038;BME280;59900;50.788;12.904;2023-04-24T03:58:04;96340.50;;;11.16;81.57
72038;BME280;59900;50.788;12.904;2023-04-24T04:00:30;96342.91;;;11.17;81.63
72038;BME280;59900;50.788;12.904;2023-04-24T04:02:57;96337.41;;;11.19;81.42
72038;BME280;59900;50.788;12.904;2023-04-24T04:05:22;96328.72;;;11.18;81.04
72038;BME280;59900;50.788;12.904;2023-04-24T04:07:47;96335.59;;;11.19;81.27
72038;BME280;59900;50.788;12.904;2023-04-24T04:10:12;96333.97;;;11.18;81.15
72038;BME280;59900;50.788;12.904;2023-04-24T04:12:38;96333.22;;;11.18;80.85
72038;BME280;59900;50.788;12.904;2023-04-24T04:15:03;96333.53;;;11.21;80.90
72038;BME280;59900;50.788;12.904;2023-04-24T04:17:29;96334.13;;;11.23;80.72
72038;BME280;59900;50.788;12.904;2023-04-24T04:19:55;96339.38;;;11.23;80.86
72038;BME280;59900;50.788;12.904;2023-04-24T04:22:21;96333.06;;;11.24;80.86
72038;BME280;59900;50.788;12.904;2023-04-24T04:24:46;96342.34;;;11.27;80.43
72038;BME280;59900;50.788;12.904;2023-04-24T04:27:12;96342.56;;;11.25;80.71
72038;BME280;59900;50.788;12.904;2023-04-24T04:29:37;96332.28;;;11.24;80.28
72038;BME280;59900;50.788;12.904;2023-04-24T04:32:03;96333.31;;;11.23;80.49
72038;BME280;59900;50.788;12.904;2023-04-24T04:34:28;96334.69;;;11.25;80.30
72038;BME280;59900;50.788;12.904;2023-04-24T04:36:57;96327.81;;;11.24;80.24
72038;BME280;59900;50.788;12.904;2023-04-24T04:39:24;96324.63;;;11.22;80.31
72038;BME280;59900;50.788;12.904;2023-04-24T04:41:49;96329.53;;;11.19;80.26
72038;BME280;59900;50.788;12.904;2023-04-24T04:44:15;96327.72;;;11.19;80.39
72038;BME280;59900;50.788;12.904;2023-04-24T04:46:41;96318.78;;;11.20;80.14
72038;BME280;59900;50.788;12.904;2023-04-24T04:49:07;96324.63;;;11.22;80.28
72038;BME280;59900;50.788;12.904;2023-04-24T04:51:33;96326.22;;;11.23;80.21
72038;BME280;59900;50.788;12.904;2023-04-24T04:53:59;96323.34;;;11.25;80.32
72038;BME280;59900;50.788;12.904;2023-04-24T04:56:24;96316.84;;;11.27;80.05
72038;BME280;59900;50.788;12.904;2023-04-24T04:58:49;96326.22;;;11.35;80.01
72038;BME280;59900;50.788;12.904;2023-04-24T05:01:15;96327.94;;;11.41;80.24
72038;BME280;59900;50.788;12.904;2023-04-24T05:03:40;96340.03;;;11.54;79.69
72038;BME280;59900;50.788;12.904;2023-04-24T05:06:06;96339.22;;;11.65;79.42
72038;BME280;59900;50.788;12.904;2023-04-24T05:08:31;96338.56;;;11.69;78.73
72038;BME280;59900;50.788;12.904;2023-04-24T05:10:56;96345.31;;;11.77;78.52
72038;BME280;59900;50.788;12.904;2023-04-24T05:13:21;96343.78;;;11.81;78.31
72038;BME280;59900;50.788;12.904;2023-04-24T05:15:47;96338.88;;;11.85;78.19
72038;BME280;59900;50.788;12.904;2023-04-24T05:18:12;96354.09;;;11.83;78.08
72038;BME280;59900;50.788;12.904;2023-04-24T05:20:37;96347.25;;;11.70;77.80
72038;BME280;59900;50.788;12.904;2023-04-24T05:23:02;96351.25;;;11.61;78.68
72038;BME280;59900;50.788;12.904;2023-04-24T05:25:28;96354.69;;;11.61;78.60
72038;BME280;59900;50.788;12.904;2023-04-24T05:27:53;96358.44;;;11.54;78.89
72038;BME280;59900;50.788;12.904;2023-04-24T05:30:19;96375.63;;;11.56;79.09
72038;BME280;59900;50.788;12.904;2023-04-24T05:32:44;96375.38;;;11.58;79.00
72038;BME280;59900;50.788;12.904;2023-04-24T05:35:10;96380.19;;;11.61;78.90
72038;BME280;59900;50.788;12.904;2023-04-24T05:37:35;96371.84;;;11.64;78.79
72038;BME280;59900;50.788;12.904;2023-04-24T05:40:00;96377.56;;;11.61;78.28
72038;BME280;59900;50.788;12.904;2023-04-24T05:42:25;96366.00;;;11.62;78.13
72038;BME280;59900;50.788;12.904;2023-04-24T05:44:51;96366.47;;;11.59;78.13
72038;BME280;59900;50.788;12.904;2023-04-24T05:47:16;96359.22;;;11.66;78.16
72038;BME280;59900;50.788;12.904;2023-04-24T05:49:41;96357.78;;;11.70;78.15
72038;BME280;59900;50.788;12.904;2023-04-24T05:52:06;96353.09;;;11.72;77.93
72038;BME280;59900;50.788;12.904;2023-04-24T05:54:34;96364.88;;;11.69;77.37
72038;BME280;59900;50.788;12.904;2023-04-24T05:56:59;96359.41;;;11.71;77.56
72038;BME280;59900;50.788;12.904;2023-04-24T05:59:26;96356.38;;;11.67;77.61
72038;BME280;59900;50.788;12.904;2023-04-24T06:01:51;96359.41;;;11.71;77.66
72038;BME280;59900;50.788;12.904;2023-04-24T06:04:16;96357.41;;;11.78;77.30
72038;BME280;59900;50.788;12.904;2023-04-24T06:06:42;96352.63;;;11.75;77.34
72038;BME280;59900;50.788;12.904;2023-04-24T06:09:07;96366.47;;;11.82;76.93
72038;BME280;59900;50.788;12.904;2023-04-24T06:11:32;96364.72;;;11.88;76.64
72038;BME280;59900;50.788;12.904;2023-04-24T06:13:57;96365.53;;;11.88;76.35
72038;BME280;59900;50.788;12.904;2023-04-24T06:16:23;96351.31;;;11.89;76.39
72038;BME280;59900;50.788;12.904;2023-04-24T06:18:48;96361.38;;;11.92;76.37
72038;BME280;59900;50.788;12.904;2023-04-24T06:21:15;96363.47;;;11.90;76.14
72038;BME280;59900;50.788;12.904;2023-04-24T06:23:40;96358.53;;;11.94;76.15
72038;BME280;59900;50.788;12.904;2023-04-24T06:26:06;96359.91;;;11.96;76.19
72038;BME280;59900;50.788;12.904;2023-04-24T06:28:31;96357.19;;;11.91;75.64
72038;BME280;59900;50.788;12.904;2023-04-24T06:30:57;96357.63;;;11.88;76.59
72038;BME280;59900;50.788;12.904;2023-04-24T06:33:22;96363.38;;;11.85;76.60
72038;BME280;59900;50.788;12.904;2023-04-24T06:35:47;96364.41;;;11.72;76.86
72038;BME280;59900;50.788;12.904;2023-04-24T06:38:12;96362.69;;;11.78;76.49
72038;BME280;59900;50.788;12.904;2023-04-24T06:40:38;96357.97;;;11.80;76.52
72038;BME280;59900;50.788;12.904;2023-04-24T06:43:03;96359.84;;;11.79;76.79
72038;BME280;59900;50.788;12.904;2023-04-24T06:45:29;96358.22;;;11.78;76.84
72038;BME280;59900;50.788;12.904;2023-04-24T06:47:55;96340.69;;;11.84;76.57
72038;BME280;59900;50.788;12.904;2023-04-24T06:50:20;96346.41;;;11.93;76.69
72038;BME280;59900;50.788;12.904;2023-04-24T06:52:46;96341.94;;;11.93;76.02
72038;BME280;59900;50.788;12.904;2023-04-24T06:55:11;96353.19;;;11.89;76.32
72038;BME280;59900;50.788;12.904;2023-04-24T06:57:36;96345.50;;;11.87;76.30
72038;BME280;59900;50.788;12.904;2023-04-24T07:00:03;96354.41;;;11.86;76.02
72038;BME280;59900;50.788;12.904;2023-04-24T07:02:30;96354.28;;;11.93;76.19
72038;BME280;59900;50.788;12.904;2023-04-24T07:04:55;96351.19;;;11.96;75.78
72038;BME280;59900;50.788;12.904;2023-04-24T07:07:20;96358.53;;;11.94;76.31
72038;BME280;59900;50.788;12.904;2023-04-24T07:09:46;96364.91;;;11.98;76.30
72038;BME280;59900;50.788;12.904;2023-04-24T07:12:11;96349.94;;;11.98;76.41
72038;BME280;59900;50.788;12.904;2023-04-24T07:14:37;96355.44;;;11.97;76.00
72038;BME280;59900;50.788;12.904;2023-04-24T07:17:03;96373.31;;;11.95;76.34
72038;BME280;59900;50.788;12.904;2023-04-24T07:19:29;96365.41;;;11.95;76.44
72038;BME280;59900;50.788;12.904;2023-04-24T07:21:54;96364.91;;;11.98;76.36
72038;BME280;59900;50.788;12.904;2023-04-24T07:24:20;96368.47;;;12.03;75.83
72038;BME280;59900;50.788;12.904;2023-04-24T07:26:45;96360.00;;;12.01;75.72
72038;BME280;59900;50.788;12.904;2023-04-24T07:29:11;96367.91;;;12.01;74.66
72038;BME280;59900;50.788;12.904;2023-04-24T07:31:37;96370.69;;;11.95;75.24
72038;BME280;59900;50.788;12.904;2023-04-24T07:34:02;96365.03;;;12.03;75.00
72038;BME280;59900;50.788;12.904;2023-04-24T07:36:27;96369.50;;;12.02;74.57
72038;BME280;59900;50.788;12.904;2023-04-24T07:38:53;96347.28;;;11.98;73.31
72038;BME280;59900;50.788;12.904;2023-04-24T07:41:19;96371.00;;;11.98;73.93
72038;BME280;59900;50.788;12.904;2023-04-24T07:43:45;96388.03;;;12.07;73.60
72038;BME280;59900;50.788;12.904;2023-04-24T07:46:10;96373.75;;;12.03;72.70
72038;BME280;59900;50.788;12.904;2023-04-24T07:48:36;96376.34;;;12.15;72.85
72038;BME280;59900;50.788;12.904;2023-04-24T07:51:01;96378.19;;;12.14;73.00
72038;BME280;59900;50.788;12.904;2023-04-24T07:53:27;96374.94;;;12.24;72.75
72038;BME280;59900;50.788;12.904;2023-04-24T07:55:54;96383.41;;;12.26;72.09
72038;BME280;59900;50.788;12.904;2023-04-24T07:58:19;96384.31;;;12.31;71.48
72038;BME280;59900;50.788;12.904;2023-04-24T08:00:45;96385.56;;;12.29;71.06
72038;BME280;59900;50.788;12.904;2023-04-24T08:03:10;96396.66;;;12.31;70.49
72038;BME280;59900;50.788;12.904;2023-04-24T08:05:37;96398.03;;;12.33;70.32
72038;BME280;59900;50.788;12.904;2023-04-24T08:08:02;96403.50;;;12.44;70.54
72038;BME280;59900;50.788;12.904;2023-04-24T08:10:27;96395.69;;;12.49;70.80
72038;BME280;59900;50.788;12.904;2023-04-24T08:12:53;96404.72;;;12.53;70.37
72038;BME280;59900;50.788;12.904;2023-04-24T08:15:18;96403.84;;;12.47;69.85
72038;BME280;59900;50.788;12.904;2023-04-24T08:17:43;96405.09;;;12.45;70.38
72038;BME280;59900;50.788;12.904;2023-04-24T08:20:10;96410.59;;;12.43;70.78
72038;BME280;59900;50.788;12.904;2023-04-24T08:22:39;96407.50;;;12.46;70.75
72038;BME280;59900;50.788;12.904;2023-04-24T08:25:05;96410.34;;;12.56;70.58
72038;BME280;59900;50.788;12.904;2023-04-24T08:27:30;96398.75;;;12.57;70.23
72038;BME280;59900;50.788;12.904;2023-04-24T08:29:56;96394.19;;;12.53;69.65
72038;BME280;59900;50.788;12.904;2023-04-24T08:32:22;96403.69;;;12.54;69.96
72038;BME280;59900;50.788;12.904;2023-04-24T08:34:47;96401.72;;;12.61;69.95
72038;BME280;59900;50.788;12.904;2023-04-24T08:37:12;96405.78;;;12.68;70.58
72038;BME280;59900;50.788;12.904;2023-04-24T08:39:38;96409.50;;;12.84;69.85
72038;BME280;59900;50.788;12.904;2023-04-24T08:42:04;96404.78;;;12.86;68.95
72038;BME280;59900;50.788;12.904;2023-04-24T08:44:33;96408.97;;;12.99;68.36
72038;BME280;59900;50.788;12.904;2023-04-24T08:46:59;96409.31;;;13.02;68.07
72038;BME280;59900;50.788;12.904;2023-04-24T08:49:26;96404.47;;;13.11;68.17
72038;BME280;59900;50.788;12.904;2023-04-24T08:51:53;96401.69;;;13.17;68.04
72038;BME280;59900;50.788;12.904;2023-04-24T08:54:18;96399.50;;;13.31;68.25
72038;BME280;59900;50.788;12.904;2023-04-24T08:56:45;96406.13;;;13.33;67.24
72038;BME280;59900;50.788;12.904;2023-04-24T08:59:13;96397.25;;;13.39;66.51
72038;BME280;59900;50.788;12.904;2023-04-24T09:01:39;96409.34;;;13.52;66.86
72038;BME280;59900;50.788;12.904;2023-04-24T09:04:06;96403.81;;;13.54;66.42
72038;BME280;59900;50.788;12.904;2023-04-24T09:06:32;96407.72;;;13.51;66.52
72038;BME280;59900;50.788;12.904;2023-04-24T09:09:00;96401.41;;;13.52;66.72
72038;BME280;59900;50.788;12.904;2023-04-24T09:11:26;96406.78;;;13.40;66.77
72038;BME280;59900;50.788;12.904;2023-04-24T09:13:53;96398.00;;;13.35;67.08
72038;BME280;59900;50.788;12.904;2023-04-24T09:16:19;96401.59;;;13.29;66.95
72038;BME280;59900;50.788;12.904;2023-04-24T09:18:44;96395.91;;;13.20;66.79
72038;BME280;59900;50.788;12.904;2023-04-24T09:21:09;96391.75;;;13.24;68.42
72038;BME280;59900;50.788;12.904;2023-04-24T09:23:34;96394.25;;;13.14;67.94
72038;BME280;59900;50.788;12.904;2023-04-24T09:26:01;96397.34;;;13.11;67.70
72038;BME280;59900;50.788;12.904;2023-04-24T09:28:31;96401.72;;;13.06;67.81
72038;BME280;59900;50.788;12.904;2023-04-24T09:31:04;96400.00;;;13.11;68.74
72038;BME280;59900;50.788;12.904;2023-04-24T09:33:30;96409.75;;;13.11;67.89
72038;BME280;59900;50.788;12.904;2023-04-24T09:35:55;96397.09;;;13.13;68.98
72038;BME280;59900;50.788;12.904;2023-04-24T09:38:34;96397.09;;;13.13;68.80
72038;BME280;59900;50.788;12.904;2023-04-24T09:41:03;96398.94;;;13.12;68.65
72038;BME280;59900;50.788;12.904;2023-04-24T09:43:29;96413.84;;;13.07;68.11
72038;BME280;59900;50.788;12.904;2023-04-24T09:45:57;96400.66;;;12.90;67.50
72038;BME280;59900;50.788;12.904;2023-04-24T09:48:36;96420.72;;;12.91;67.17
72038;BME280;59900;50.788;12.904;2023-04-24T09:51:04;96418.88;;;12.91;67.79
72038;BME280;59900;50.788;12.904;2023-04-24T09:53:32;96403.22;;;12.85;67.15
72038;BME280;59900;50.788;12.904;2023-04-24T09:56:10;96415.59;;;13.01;66.55
72038;BME280;59900;50.788;12.904;2023-04-24T09:58:37;96416.84;;;13.10;67.03
72038;BME280;59900;50.788;12.904;2023-04-24T10:01:03;96408.31;;;13.20;66.82
72038;BME280;59900;50.788;12.904;2023-04-24T10:03:33;96425.88;;;13.14;66.44
72038;BME280;59900;50.788;12.904;2023-04-24T10:05:59;96412.38;;;13.11;65.85
72038;BME280;59900;50.788;12.904;2023-04-24T10:08:25;96417.28;;;13.07;64.76
72038;BME280;59900;50.788;12.904;2023-04-24T10:10:52;96421.09;;;13.11;63.66
72038;BME280;59900;50.788;12.904;2023-04-24T10:13:17;96410.91;;;13.03;62.52
72038;BME280;59900;50.788;12.904;2023-04-24T10:15:43;96421.31;;;13.10;61.60
72038;BME280;59900;50.788;12.904;2023-04-24T10:18:09;96416.38;;;13.13;61.39
72038;BME280;59900;50.788;12.904;2023-04-24T10:20:37;96411.66;;;13.15;61.54
72038;BME280;59900;50.788;12.904;2023-04-24T10:23:03;96413.72;;;13.30;60.00
72038;BME280;59900;50.788;12.904;2023-04-24T10:25:34;96421.16;;;13.33;59.96
72038;BME280;59900;50.788;12.904;2023-04-24T10:28:01;96419.56;;;13.48;59.89
72038;BME280;59900;50.788;12.904;2023-04-24T10:30:28;96412.03;;;13.57;59.39
72038;BME280;59900;50.788;12.904;2023-04-24T10:32:54;96408.59;;;13.73;59.75
72038;BME280;59900;50.788;12.904;2023-04-24T10:35:20;96414.16;;;13.77;58.48
72038;BME280;59900;50.788;12.904;2023-04-24T10:37:54;96419.38;;;13.72;57.64
72038;BME280;59900;50.788;12.904;2023-04-24T10:40:35;96417.28;;;13.74;58.74
72038;BME280;59900;50.788;12.904;2023-04-24T10:43:05;96426.88;;;13.80;58.73
72038;BME280;59900;50.788;12.904;2023-04-24T10:45:31;96430.09;;;13.65;56.67
72038;BME280;59900;50.788;12.904;2023-04-24T10:48:02;96432.28;;;13.52;56.37
72038;BME280;59900;50.788;12.904;2023-04-24T10:50:29;96433.63;;;13.54;55.43
72038;BME280;59900;50.788;12.904;2023-04-24T10:53:06;96437.63;;;13.57;55.32
72038;BME280;59900;50.788;12.904;2023-04-24T10:55:46;96442.13;;;13.56;54.01
72038;BME280;59900;50.788;12.904;2023-04-24T10:58:12;96437.00;;;13.66;54.76
72038;BME280;59900;50.788;12.904;2023-04-24T11:00:39;96437.47;;;13.63;53.54
72038;BME280;59900;50.788;12.904;2023-04-24T11:03:22;96439.69;;;13.71;54.33
72038;BME280;59900;50.788;12.904;2023-04-24T11:08:29;96432.97;;;13.97;53.93
72038;BME280;59900;50.788;12.904;2023-04-24T11:11:01;96440.94;;;14.02;52.44
72038;BME280;59900;50.788;12.904;2023-04-24T11:14:00;96434.41;;;13.88;53.12
72038;BME280;59900;50.788;12.904;2023-04-24T11:16:27;96438.09;;;13.87;52.21
72038;BME280;59900;50.788;12.904;2023-04-24T11:21:43;96456.28;;;13.50;50.46
72038;BME280;59900;50.788;12.904;2023-04-24T11:24:48;96452.19;;;13.42;51.60
72038;BME280;59900;50.788;12.904;2023-04-24T11:27:19;96456.09;;;13.57;52.21
72038;BME280;59900;50.788;12.904;2023-04-24T11:32:26;96469.78;;;13.20;52.94
72038;BME280;59900;50.788;12.904;2023-04-24T11:34:56;96465.66;;;13.41;53.41
72038;BME280;59900;50.788;12.904;2023-04-24T11:37:24;96469.31;;;13.40;52.97
72038;BME280;59900;50.788;12.904;2023-04-24T11:39:54;96496.09;;;13.48;53.66
72038;BME280;59900;50.788;12.904;2023-04-24T11:42:21;96485.00;;;13.46;53.05
72038;BME280;59900;50.788;12.904;2023-04-24T11:44:47;96476.69;;;13.55;52.75
72038;BME280;59900;50.788;12.904;2023-04-24T11:47:13;96496.28;;;13.59;52.87
72038;BME280;59900;50.788;12.904;2023-04-24T11:49:38;96477.41;;;13.67;51.15
72038;BME280;59900;50.788;12.904;2023-04-24T11:52:04;96478.13;;;13.79;48.79
72038;BME280;59900;50.788;12.904;2023-04-24T11:54:29;96486.41;;;14.04;48.01
72038;BME280;59900;50.788;12.904;2023-04-24T11:56:56;96468.28;;;14.13;48.23
72038;BME280;59900;50.788;12.904;2023-04-24T11:59:22;96488.94;;;14.16;47.92
72038;BME280;59900;50.788;12.904;2023-04-24T12:01:48;96487.25;;;14.10;47.21
72038;BME280;59900;50.788;12.904;2023-04-24T12:04:15;96472.38;;;14.03;47.20
72038;BME280;59900;50.788;12.904;2023-04-24T12:06:59;96471.19;;;13.94;47.75
72038;BME280;59900;50.788;12.904;2023-04-24T12:09:25;96485.31;;;13.83;48.35
72038;BME280;59900;50.788;12.904;2023-04-24T12:11:56;96480.81;;;13.84;49.03
72038;BME280;59900;50.788;12.904;2023-04-24T12:14:25;96490.50;;;13.95;48.34
72038;BME280;59900;50.788;12.904;2023-04-24T12:16:50;96484.81;;;14.03;48.39
72038;BME280;59900;50.788;12.904;2023-04-24T12:19:23;96484.72;;;13.98;47.84
72038;BME280;59900;50.788;12.904;2023-04-24T12:22:02;96465.44;;;13.97;47.79
72038;BME280;59900;50.788;12.904;2023-04-24T12:24:27;96465.53;;;14.02;48.54
72038;BME280;59900;50.788;12.904;2023-04-24T12:26:53;96487.88;;;13.78;48.08
72038;BME280;59900;50.788;12.904;2023-04-24T12:29:21;96484.44;;;13.78;48.07
72038;BME280;59900;50.788;12.904;2023-04-24T12:31:47;96487.00;;;13.73;47.90
72038;BME280;59900;50.788;12.904;2023-04-24T12:34:23;96479.63;;;13.75;47.87
72038;BME280;59900;50.788;12.904;2023-04-24T12:36:48;96486.03;;;13.79;48.14
72038;BME280;59900;50.788;12.904;2023-04-24T12:39:15;96480.03;;;13.67;47.88
72038;BME280;59900;50.788;12.904;2023-04-24T12:41:50;96471.16;;;13.73;48.79
72038;BME280;59900;50.788;12.904;2023-04-24T12:44:19;96474.19;;;13.81;48.52
72038;BME280;59900;50.788;12.904;2023-04-24T12:46:44;96484.97;;;13.80;48.77
72038;BME280;59900;50.788;12.904;2023-04-24T12:49:10;96479.78;;;13.85;48.28
72038;BME280;59900;50.788;12.904;2023-04-24T12:51:35;96471.06;;;14.23;47.15
72038;BME280;59900;50.788;12.904;2023-04-24T12:54:00;96463.44;;;14.65;45.62